sensor_id;sensor_type;location;lat;lon;timestamp;temperature;humidity
10702;DHT22;5402;50.004;8.246;2023-09-30T00:01:40;16.30;99.90
10702;DHT22;5402;50.004;8.246;2023-09-30T00:04:07;16.40;99.90
10702;DHT22;5402;50.004;8.246;2023-09-30T00:06:34;16.40;99.90
10702;DHT22;5402;50.004;8.246;2023-09-30T00:09:02;16.40;99.90
10702;DHT22;5402;50.004;8.246;2023-09-30T00:11:31;16.40;99.90
10702;DHT22;5402;50.004;8.246;2023-09-30T00:13:58;16.40;99.90
10702;DHT22;5402;50.004;8.246;2023-09-30T00:16:25;16.40;99.90
10702;DHT22;5402;50.004;8.246;2023-09-30T00:18:52;16.40;99.90
10702;DHT22;5402;50.004;8.246;2023-09-30T00:21:19;16.50;99.90
10702;DHT22;5402;50.004;8.246;2023-09-30T00:23:46;16.40;99.90
10702;DHT22;5402;50.004;8.246;2023-09-30T00:26:14;16.50;99.90
10702;DHT22;5402;50.004;8.246;2023-09-30T00:28:41;16.50;99.90
10702;DHT22;5402;50.004;8.246;2023-09-30T00:31:08;16.50;99.90
10702;DHT22;5402;50.004;8.246;2023-09-30T00:33:37;16.50;99.90
10702;DHT22;5402;50.004;8.246;2023-09-30T00:36:07;16.50;99.90
10702;DHT22;5402;50.004;8.246;2023-09-30T00:38:35;16.50;99.90
10702;DHT22;5402;50.004;8.246;2023-09-30T00:41:01;16.50;99.90
10702;DHT22;5402;50.004;8.246;2023-09-30T00:43:29;16.60;99.90
10702;DHT22;5402;50.004;8.246;2023-09-30T00:46:02;16.50;99.90
10702;DHT22;5402;50.004;8.246;2023-09-30T00:48:32;16.50;99.90
10702;DHT22;5402;50.004;8.246;2023-09-30T00:50:59;16.50;99.90
10702;DHT22;5402;50.004;8.246;2023-09-30T00:53:27;16.50;99.90
10702;DHT22;5402;50.004;8.246;2023-09-30T00:55:55;16.50;99.90
10702;DHT22;5402;50.004;8.246;2023-09-30T00:58:23;16.50;99.90
10702;DHT22;5402;50.004;8.246;2023-09-30T01:00:53;16.50;99.90
10702;DHT22;5402;50.004;8.246;2023-09-30T01:03:22;16.40;99.90
10702;DHT22;5402;50.004;8.246;2023-09-30T01:05:49;16.40;99.90
10702;DHT22;5402;50.004;8.246;2023-09-30T01:08:16;16.40;99.90
10702;DHT22;5402;50.004;8.246;2023-09-30T01:10:44;16.30;99.90
10702;DHT22;5402;50.004;8.246;2023-09-30T01:13:10;16.40;99.90
10702;DHT22;5402;50.004;8.246;2023-09-30T01:15:37;16.30;99.90
10702;DHT22;5402;50.004;8.246;2023-09-30T01:18:06;16.30;99.90
10702;DHT22;5402;50.004;8.246;2023-09-30T01:20:32;16.30;99.90
10702;DHT22;5402;50.004;8.246;2023-09-30T01:23:01;16.30;99.90
10702;DHT22;5402;50.004;8.246;2023-09-30T01:25:29;16.30;99.90
10702;DHT22;5402;50.004;8.246;2023-09-30T01:27:56;16.40;99.90
10702;DHT22;5402;50.004;8.246;2023-09-30T01:30:25;16.20;99.90
10702;DHT22;5402;50.004;8.246;2023-09-30T01:32:52;16.10;99.90
10702;DHT22;5402;50.004;8.246;2023-09-30T01:35:19;16.10;99.90
10702;DHT22;5402;50.004;8.246;2023-09-30T01:37:47;16.10;99.90
10702;DHT22;5402;50.004;8.246;2023-09-30T01:40:15;16.10;99.90
10702;DHT22;5402;50.004;8.246;2023-09-30T01:42:43;16.00;99.90
10702;DHT22;5402;50.004;8.246;2023-09-30T01:45:10;16.00;99.90
10702;DHT22;5402;50.004;8.246;2023-09-30T01:47:37;15.90;99.90
10702;DHT22;5402;50.004;8.246;2023-09-30T01:50:05;15.90;99.90
10702;DHT22;5402;50.004;8.246;2023-09-30T01:52:31;15.80;99.90
10702;DHT22;5402;50.004;8.246;2023-09-30T01:54:58;15.80;99.90
10702;DHT22;5402;50.004;8.246;2023-09-30T01:57:26;15.80;99.90
10702;DHT22;5402;50.004;8.246;2023-09-30T01:59:53;15.80;99.90
10702;DHT22;5402;50.004;8.246;2023-09-30T02:02:20;15.80;99.90
10702;DHT22;5402;50.004;8.246;2023-09-30T02:04:47;15.90;99.90
10702;DHT22;5402;50.004;8.246;2023-09-30T02:07:13;15.80;99.90
10702;DHT22;5402;50.004;8.246;2023-09-30T02:09:40;15.70;99.90
10702;DHT22;5402;50.004;8.246;2023-09-30T02:12:07;15.70;99.90
10702;DHT22;5402;50.004;8.246;2023-09-30T02:14:36;15.70;99.90
10702;DHT22;5402;50.004;8.246;2023-09-30T02:17:04;15.70;99.90
10702;DHT22;5402;50.004;8.246;2023-09-30T02:19:30;15.60;99.90
10702;DHT22;5402;50.004;8.246;2023-09-30T02:21:59;15.60;99.90
10702;DHT22;5402;50.004;8.246;2023-09-30T02:24:25;15.60;99.90
10702;DHT22;5402;50.004;8.246;2023-09-30T02:26:52;15.60;99.90
10702;DHT22;5402;50.004;8.246;2023-09-30T02:29:19;15.50;99.90
10702;DHT22;5402;50.004;8.246;2023-09-30T02:31:47;15.40;99.90
10702;DHT22;5402;50.004;8.246;2023-09-30T02:34:14;15.40;99.90
10702;DHT22;5402;50.004;8.246;2023-09-30T02:36:41;15.40;99.90
10702;DHT22;5402;50.004;8.246;2023-09-30T02:39:07;15.40;99.90
10702;DHT22;5402;50.004;8.246;2023-09-30T02:41:35;15.40;99.90
10702;DHT22;5402;50.004;8.246;2023-09-30T02:44:03;15.40;99.90
10702;DHT22;5402;50.004;8.246;2023-09-30T02:46:30;15.30;99.90
10702;DHT22;5402;50.004;8.246;2023-09-30T02:48:58;15.20;99.90
10702;DHT22;5402;50.004;8.246;2023-09-30T02:51:24;15.20;99.90
10702;DHT22;5402;50.004;8.246;2023-09-30T02:53:51;15.20;99.90
10702;DHT22;5402;50.004;8.246;2023-09-30T02:56:18;15.20;99.90
10702;DHT22;5402;50.004;8.246;2023-09-30T02:58:45;15.00;99.90
10702;DHT22;5402;50.004;8.246;2023-09-30T03:01:14;14.90;99.90
10702;DHT22;5402;50.004;8.246;2023-09-30T03:03:42;14.90;99.90
10702;DHT22;5402;50.004;8.246;2023-09-30T03:06:11;14.70;99.90
10702;DHT22;5402;50.004;8.246;2023-09-30T03:08:38;14.70;99.90
10702;DHT22;5402;50.004;8.246;2023-09-30T03:11:06;14.50;99.90
10702;DHT22;5402;50.004;8.246;2023-09-30T03:13:33;14.30;99.90
10702;DHT22;5402;50.004;8.246;2023-09-30T03:16:00;14.30;99.90
10702;DHT22;5402;50.004;8.246;2023-09-30T03:18:27;14.30;99.90
10702;DHT22;5402;50.004;8.246;2023-09-30T03:21:00;14.30;99.90
10702;DHT22;5402;50.004;8.246;2023-09-30T03:23:28;14.30;99.90
10702;DHT22;5402;50.004;8.246;2023-09-30T03:25:56;14.30;99.90
10702;DHT22;5402;50.004;8.246;2023-09-30T03:28:23;14.30;99.90
10702;DHT22;5402;50.004;8.246;2023-09-30T03:30:50;14.30;99.90
10702;DHT22;5402;50.004;8.246;2023-09-30T03:33:16;14.30;99.90
10702;DHT22;5402;50.004;8.246;2023-09-30T03:35:43;14.30;99.90
10702;DHT22;5402;50.004;8.246;2023-09-30T03:38:11;14.20;99.90
10702;DHT22;5402;50.004;8.246;2023-09-30T03:40:39;14.10;99.90
10702;DHT22;5402;50.004;8.246;2023-09-30T03:43:13;14.00;99.90
10702;DHT22;5402;50.004;8.246;2023-09-30T03:45:39;14.00;99.90
10702;DHT22;5402;50.004;8.246;2023-09-30T03:48:06;14.00;99.90
10702;DHT22;5402;50.004;8.246;2023-09-30T03:50:33;14.00;99.90
10702;DHT22;5402;50.004;8.246;2023-09-30T03:53:02;13.90;99.90
10702;DHT22;5402;50.004;8.246;2023-09-30T03:55:30;13.80;99.90
10702;DHT22;5402;50.004;8.246;2023-09-30T03:57:58;13.70;99.90
10702;DHT22;5402;50.004;8.246;2023-09-30T04:00:25;13.60;99.90
10702;DHT22;5402;50.004;8.246;2023-09-30T04:02:52;13.50;99.90
10702;DHT22;5402;50.004;8.246;2023-09-30T04:05:24;13.50;99.90
10702;DHT22;5402;50.004;8.246;2023-09-30T04:07:54;13.50;99.90
10702;DHT22;5402;50.004;8.246;2023-09-30T04:10:20;13.50;99.90
10702;DHT22;5402;50.004;8.246;2023-09-30T04:12:49;13.50;99.90
10702;DHT22;5402;50.004;8.246;2023-09-30T04:15:17;13.50;99.90
10702;DHT22;5402;50.004;8.246;2023-09-30T04:17:44;13.60;99.90
10702;DHT22;5402;50.004;8.246;2023-09-30T04:20:11;13.50;99.90
10702;DHT22;5402;50.004;8.246;2023-09-30T04:22:44;13.40;99.90
10702;DHT22;5402;50.004;8.246;2023-09-30T04:25:14;13.30;99.90
10702;DHT22;5402;50.004;8.246;2023-09-30T04:27:42;13.20;99.90
10702;DHT22;5402;50.004;8.246;2023-09-30T04:30:10;13.20;99.90
10702;DHT22;5402;50.004;8.246;2023-09-30T04:32:38;13.10;99.90
10702;DHT22;5402;50.004;8.246;2023-09-30T04:35:05;13.20;99.90
10702;DHT22;5402;50.004;8.246;2023-09-30T04:37:33;13.20;99.90
10702;DHT22;5402;50.004;8.246;2023-09-30T04:40:02;13.20;99.90
10702;DHT22;5402;50.004;8.246;2023-09-30T04:42:34;13.30;99.90
10702;DHT22;5402;50.004;8.246;2023-09-30T04:45:02;13.20;99.90
10702;DHT22;5402;50.004;8.246;2023-09-30T04:47:30;13.30;99.90
10702;DHT22;5402;50.004;8.246;2023-09-30T04:49:59;13.20;99.90
10702;DHT22;5402;50.004;8.246;2023-09-30T04:52:30;13.20;99.90
10702;DHT22;5402;50.004;8.246;2023-09-30T04:54:56;13.20;99.90
10702;DHT22;5402;50.004;8.246;2023-09-30T04:57:23;13.20;99.90
10702;DHT22;5402;50.004;8.246;2023-09-30T04:59:50;13.30;99.90
10702;DHT22;5402;50.004;8.246;2023-09-30T05:02:17;13.30;99.90
10702;DHT22;5402;50.004;8.246;2023-09-30T05:04:44;13.30;99.90
10702;DHT22;5402;50.004;8.246;2023-09-30T05:07:12;13.30;99.90
10702;DHT22;5402;50.004;8.246;2023-09-30T05:09:39;13.20;99.90
10702;DHT22;5402;50.004;8.246;2023-09-30T05:12:06;13.10;99.90
10702;DHT22;5402;50.004;8.246;2023-09-30T05:14:34;13.10;99.90
10702;DHT22;5402;50.004;8.246;2023-09-30T05:17:02;13.10;99.90
10702;DHT22;5402;50.004;8.246;2023-09-30T05:19:30;13.00;99.90
10702;DHT22;5402;50.004;8.246;2023-09-30T05:21:57;13.10;99.90
10702;DHT22;5402;50.004;8.246;2023-09-30T05:24:25;13.00;99.90
10702;DHT22;5402;50.004;8.246;2023-09-30T05:26:52;12.80;99.90
10702;DHT22;5402;50.004;8.246;2023-09-30T05:29:18;12.80;99.90
10702;DHT22;5402;50.004;8.246;2023-09-30T05:31:45;12.80;99.90
10702;DHT22;5402;50.004;8.246;2023-09-30T05:34:12;12.90;99.90
10702;DHT22;5402;50.004;8.246;2023-09-30T05:36:39;12.90;99.90
10702;DHT22;5402;50.004;8.246;2023-09-30T05:39:05;12.90;99.90
10702;DHT22;5402;50.004;8.246;2023-09-30T05:41:37;12.80;99.90
10702;DHT22;5402;50.004;8.246;2023-09-30T05:44:04;12.80;99.90
10702;DHT22;5402;50.004;8.246;2023-09-30T05:46:33;12.90;99.90
10702;DHT22;5402;50.004;8.246;2023-09-30T05:48:59;12.90;99.90
10702;DHT22;5402;50.004;8.246;2023-09-30T05:51:27;13.00;99.90
10702;DHT22;5402;50.004;8.246;2023-09-30T05:53:53;13.00;99.90
10702;DHT22;5402;50.004;8.246;2023-09-30T05:56:21;13.00;99.90
10702;DHT22;5402;50.004;8.246;2023-09-30T05:58:49;13.00;99.90
10702;DHT22;5402;50.004;8.246;2023-09-30T06:01:16;13.00;99.90
10702;DHT22;5402;50.004;8.246;2023-09-30T06:03:45;13.00;99.90
10702;DHT22;5402;50.004;8.246;2023-09-30T06:06:12;12.90;99.90
10702;DHT22;5402;50.004;8.246;2023-09-30T06:08:39;13.00;99.90
10702;DHT22;5402;50.004;8.246;2023-09-30T06:11:06;13.10;99.90
10702;DHT22;5402;50.004;8.246;2023-09-30T06:13:33;13.00;99.90
10702;DHT22;5402;50.004;8.246;2023-09-30T06:16:01;13.00;99.90
10702;DHT22;5402;50.004;8.246;2023-09-30T06:18:28;12.80;99.90
10702;DHT22;5402;50.004;8.246;2023-09-30T06:20:55;12.90;99.90
10702;DHT22;5402;50.004;8.246;2023-09-30T06:23:23;13.00;99.90
10702;DHT22;5402;50.004;8.246;2023-09-30T06:25:50;13.20;99.90
10702;DHT22;5402;50.004;8.246;2023-09-30T06:28:18;13.20;99.90
10702;DHT22;5402;50.004;8.246;2023-09-30T06:30:51;13.40;99.90
10702;DHT22;5402;50.004;8.246;2023-09-30T06:33:19;13.40;99.90
10702;DHT22;5402;50.004;8.246;2023-09-30T06:35:46;13.40;99.90
10702;DHT22;5402;50.004;8.246;2023-09-30T06:38:16;13.60;99.90
10702;DHT22;5402;50.004;8.246;2023-09-30T06:40:44;13.60;99.90
10702;DHT22;5402;50.004;8.246;2023-09-30T06:43:12;13.60;99.90
10702;DHT22;5402;50.004;8.246;2023-09-30T06:45:41;13.60;99.90
10702;DHT22;5402;50.004;8.246;2023-09-30T06:48:09;13.60;99.90
10702;DHT22;5402;50.004;8.246;2023-09-30T06:50:39;13.60;99.90
10702;DHT22;5402;50.004;8.246;2023-09-30T06:53:06;13.70;99.90
10702;DHT22;5402;50.004;8.246;2023-09-30T06:55:36;13.70;99.90
10702;DHT22;5402;50.004;8.246;2023-09-30T06:58:03;13.80;99.90
10702;DHT22;5402;50.004;8.246;2023-09-30T07:00:33;13.80;99.90
10702;DHT22;5402;50.004;8.246;2023-09-30T07:03:00;13.90;99.90
10702;DHT22;5402;50.004;8.246;2023-09-30T07:05:27;13.80;99.90
10702;DHT22;5402;50.004;8.246;2023-09-30T07:07:56;13.80;99.90
10702;DHT22;5402;50.004;8.246;2023-09-30T07:10:23;14.00;99.90
10702;DHT22;5402;50.004;8.246;2023-09-30T07:12:49;14.10;99.90
10702;DHT22;5402;50.004;8.246;2023-09-30T07:15:16;14.10;99.90
10702;DHT22;5402;50.004;8.246;2023-09-30T07:17:43;14.20;99.90
10702;DHT22;5402;50.004;8.246;2023-09-30T07:20:11;14.30;99.90
10702;DHT22;5402;50.004;8.246;2023-09-30T07:22:38;14.40;99.90
10702;DHT22;5402;50.004;8.246;2023-09-30T07:25:07;14.40;99.90
10702;DHT22;5402;50.004;8.246;2023-09-30T07:27:34;14.40;99.90
10702;DHT22;5402;50.004;8.246;2023-09-30T07:30:00;14.50;99.90
10702;DHT22;5402;50.004;8.246;2023-09-30T07:32:31;14.60;99.90
10702;DHT22;5402;50.004;8.246;2023-09-30T07:34:57;14.60;99.90
10702;DHT22;5402;50.004;8.246;2023-09-30T07:37:24;14.70;99.90
10702;DHT22;5402;50.004;8.246;2023-09-30T07:39:51;14.70;99.90
10702;DHT22;5402;50.004;8.246;2023-09-30T07:42:19;14.70;99.90
10702;DHT22;5402;50.004;8.246;2023-09-30T07:44:47;14.70;99.90
10702;DHT22;5402;50.004;8.246;2023-09-30T07:47:14;14.90;99.90
10702;DHT22;5402;50.004;8.246;2023-09-30T07:49:41;15.10;99.90
10702;DHT22;5402;50.004;8.246;2023-09-30T07:52:07;15.30;99.90
10702;DHT22;5402;50.004;8.246;2023-09-30T07:54:35;15.30;99.90
10702;DHT22;5402;50.004;8.246;2023-09-30T07:57:02;15.30;99.90
10702;DHT22;5402;50.004;8.246;2023-09-30T07:59:30;15.40;99.90
10702;DHT22;5402;50.004;8.246;2023-09-30T08:01:58;15.50;99.90
10702;DHT22;5402;50.004;8.246;2023-09-30T08:04:25;15.60;99.90
10702;DHT22;5402;50.004;8.246;2023-09-30T08:06:52;15.80;99.90
10702;DHT22;5402;50.004;8.246;2023-09-30T08:09:18;15.80;99.90
10702;DHT22;5402;50.004;8.246;2023-09-30T08:11:45;15.80;99.90
10702;DHT22;5402;50.004;8.246;2023-09-30T08:14:12;16.00;99.90
10702;DHT22;5402;50.004;8.246;2023-09-30T08:16:42;16.10;99.90
10702;DHT22;5402;50.004;8.246;2023-09-30T08:19:09;16.20;99.90
10702;DHT22;5402;50.004;8.246;2023-09-30T08:21:36;16.30;99.90
10702;DHT22;5402;50.004;8.246;2023-09-30T08:24:03;16.30;99.90
10702;DHT22;5402;50.004;8.246;2023-09-30T08:26:30;16.50;99.90
10702;DHT22;5402;50.004;8.246;2023-09-30T08:28:56;16.70;99.90
10702;DHT22;5402;50.004;8.246;2023-09-30T08:31:23;16.80;99.90
10702;DHT22;5402;50.004;8.246;2023-09-30T08:33:52;17.00;99.90
10702;DHT22;5402;50.004;8.246;2023-09-30T08:36:18;17.10;99.90
10702;DHT22;5402;50.004;8.246;2023-09-30T08:38:45;17.40;99.90
10702;DHT22;5402;50.004;8.246;2023-09-30T08:41:25;17.50;99.90
10702;DHT22;5402;50.004;8.246;2023-09-30T08:43:55;17.70;99.90
10702;DHT22;5402;50.004;8.246;2023-09-30T08:46:24;17.90;99.90
10702;DHT22;5402;50.004;8.246;2023-09-30T08:48:53;18.00;99.90
10702;DHT22;5402;50.004;8.246;2023-09-30T08:51:21;18.10;99.90
10702;DHT22;5402;50.004;8.246;2023-09-30T08:53:51;18.30;99.90
10702;DHT22;5402;50.004;8.246;2023-09-30T08:56:19;18.10;99.90
10702;DHT22;5402;50.004;8.246;2023-09-30T08:58:47;18.20;99.90
10702;DHT22;5402;50.004;8.246;2023-09-30T09:01:15;18.40;99.90
10702;DHT22;5402;50.004;8.246;2023-09-30T09:03:42;18.60;99.90
10702;DHT22;5402;50.004;8.246;2023-09-30T09:06:10;18.40;99.90
10702;DHT22;5402;50.004;8.246;2023-09-30T09:08:37;18.50;99.90
10702;DHT22;5402;50.004;8.246;2023-09-30T09:11:06;18.40;99.90
10702;DHT22;5402;50.004;8.246;2023-09-30T09:13:45;18.60;99.90
10702;DHT22;5402;50.004;8.246;2023-09-30T09:16:15;18.70;99.90
10702;DHT22;5402;50.004;8.246;2023-09-30T09:18:43;18.70;99.90
10702;DHT22;5402;50.004;8.246;2023-09-30T09:21:13;18.70;99.90
10702;DHT22;5402;50.004;8.246;2023-09-30T09:23:41;18.70;99.90
10702;DHT22;5402;50.004;8.246;2023-09-30T09:26:09;18.70;99.90
10702;DHT22;5402;50.004;8.246;2023-09-30T09:28:37;18.70;99.90
10702;DHT22;5402;50.004;8.246;2023-09-30T09:31:20;18.60;99.90
10702;DHT22;5402;50.004;8.246;2023-09-30T09:33:49;18.80;99.90
10702;DHT22;5402;50.004;8.246;2023-09-30T09:36:19;18.90;99.90
10702;DHT22;5402;50.004;8.246;2023-09-30T09:38:48;19.00;99.90
10702;DHT22;5402;50.004;8.246;2023-09-30T09:41:16;18.90;99.90
10702;DHT22;5402;50.004;8.246;2023-09-30T09:43:43;18.90;99.90
10702;DHT22;5402;50.004;8.246;2023-09-30T09:46:10;18.90;99.90
10702;DHT22;5402;50.004;8.246;2023-09-30T09:48:38;18.90;99.90
10702;DHT22;5402;50.004;8.246;2023-09-30T09:51:05;19.00;99.90
10702;DHT22;5402;50.004;8.246;2023-09-30T09:53:36;19.10;99.90
10702;DHT22;5402;50.004;8.246;2023-09-30T09:56:04;19.10;99.90
10702;DHT22;5402;50.004;8.246;2023-09-30T09:58:33;19.00;99.90
10702;DHT22;5402;50.004;8.246;2023-09-30T10:01:02;18.90;99.90
10702;DHT22;5402;50.004;8.246;2023-09-30T10:03:31;19.10;99.90
10702;DHT22;5402;50.004;8.246;2023-09-30T10:05:58;19.30;99.90
10702;DHT22;5402;50.004;8.246;2023-09-30T10:08:31;19.40;99.90
10702;DHT22;5402;50.004;8.246;2023-09-30T10:11:01;19.40;99.90
10702;DHT22;5402;50.004;8.246;2023-09-30T10:13:49;19.40;99.90
10702;DHT22;5402;50.004;8.246;2023-09-30T10:16:50;19.40;99.90
10702;DHT22;5402;50.004;8.246;2023-09-30T10:19:19;19.40;99.90
10702;DHT22;5402;50.004;8.246;2023-09-30T10:22:22;19.30;99.90
10702;DHT22;5402;50.004;8.246;2023-09-30T10:24:54;19.40;99.90
10702;DHT22;5402;50.004;8.246;2023-09-30T10:27:36;19.40;99.90
10702;DHT22;5402;50.004;8.246;2023-09-30T10:30:11;19.50;99.90
10702;DHT22;5402;50.004;8.246;2023-09-30T10:33:08;19.60;99.90
10702;DHT22;5402;50.004;8.246;2023-09-30T10:35:46;19.60;99.90
10702;DHT22;5402;50.004;8.246;2023-09-30T10:38:38;19.60;99.90
10702;DHT22;5402;50.004;8.246;2023-09-30T10:41:08;19.60;99.90
10702;DHT22;5402;50.004;8.246;2023-09-30T10:43:40;19.50;99.90
10702;DHT22;5402;50.004;8.246;2023-09-30T10:46:33;19.50;99.90
10702;DHT22;5402;50.004;8.246;2023-09-30T10:52:07;19.90;99.90
10702;DHT22;5402;50.004;8.246;2023-09-30T10:54:35;20.00;99.90
10702;DHT22;5402;50.004;8.246;2023-09-30T11:02:21;20.30;99.90
10702;DHT22;5402;50.004;8.246;2023-09-30T11:04:48;20.40;99.90
10702;DHT22;5402;50.004;8.246;2023-09-30T11:07:21;20.10;99.90
10702;DHT22;5402;50.004;8.246;2023-09-30T11:09:49;20.10;99.90
10702;DHT22;5402;50.004;8.246;2023-09-30T11:12:16;20.20;99.90
10702;DHT22;5402;50.004;8.246;2023-09-30T11:14:42;20.10;99.90
10702;DHT22;5402;50.004;8.246;2023-09-30T11:17:09;20.10;99.90
10702;DHT22;5402;50.004;8.246;2023-09-30T11:19:46;20.20;99.90
10702;DHT22;5402;50.004;8.246;2023-09-30T11:22:14;20.20;99.90
10702;DHT22;5402;50.004;8.246;2023-09-30T11:24:41;20.20;99.90
10702;DHT22;5402;50.004;8.246;2023-09-30T11:27:10;20.00;99.90
10702;DHT22;5402;50.004;8.246;2023-09-30T11:29:36;19.90;99.90
10702;DHT22;5402;50.004;8.246;2023-09-30T11:32:03;20.10;99.90
10702;DHT22;5402;50.004;8.246;2023-09-30T11:34:34;20.20;99.90
10702;DHT22;5402;50.004;8.246;2023-09-30T11:37:03;20.20;99.90
10702;DHT22;5402;50.004;8.246;2023-09-30T11:39:31;20.10;99.90
10702;DHT22;5402;50.004;8.246;2023-09-30T11:41:59;20.10;99.90
10702;DHT22;5402;50.004;8.246;2023-09-30T11:44:27;19.90;99.90
10702;DHT22;5402;50.004;8.246;2023-09-30T11:46:55;19.90;99.90
10702;DHT22;5402;50.004;8.246;2023-09-30T11:49:29;19.80;99.90
10702;DHT22;5402;50.004;8.246;2023-09-30T11:51:57;19.70;99.90
10702;DHT22;5402;50.004;8.246;2023-09-30T11:54:31;19.60;99.90
10702;DHT22;5402;50.004;8.246;2023-09-30T11:56:58;19.60;99.90
10702;DHT22;5402;50.004;8.246;2023-09-30T11:59:25;19.60;99.90
10702;DHT22;5402;50.004;8.246;2023-09-30T12:01:52;19.60;99.90
10702;DHT22;5402;50.004;8.246;2023-09-30T12:04:20;19.50;99.90
10702;DHT22;5402;50.004;8.246;2023-09-30T12:06:47;19.40;99.90
10702;DHT22;5402;50.004;8.246;2023-09-30T12:09:14;19.30;99.90
10702;DHT22;5402;50.004;8.246;2023-09-30T12:11:49;19.20;99.90
10702;DHT22;5402;50.004;8.246;2023-09-30T12:14:16;19.20;99.90
10702;DHT22;5402;50.004;8.246;2023-09-30T12:16:43;19.30;99.90
10702;DHT22;5402;50.004;8.246;2023-09-30T12:19:11;19.20;99.90
10702;DHT22;5402;50.004;8.246;2023-09-30T12:21:39;19.20;99.90
10702;DHT22;5402;50.004;8.246;2023-09-30T12:24:07;19.30;99.90
10702;DHT22;5402;50.004;8.246;2023-09-30T12:26:37;19.30;99.90
10702;DHT22;5402;50.004;8.246;2023-09-30T12:29:07;19.40;99.90
10702;DHT22;5402;50.004;8.246;2023-09-30T12:31:35;19.40;99.90
10702;DHT22;5402;50.004;8.246;2023-09-30T12:34:02;19.50;99.90
10702;DHT22;5402;50.004;8.246;2023-09-30T12:36:28;19.40;99.90
10702;DHT22;5402;50.004;8.246;2023-09-30T12:38:55;19.40;99.90
10702;DHT22;5402;50.004;8.246;2023-09-30T12:41:23;19.40;99.90
10702;DHT22;5402;50.004;8.246;2023-09-30T12:43:49;19.60;99.90
10702;DHT22;5402;50.004;8.246;2023-09-30T12:46:17;19.80;99.90
10702;DHT22;5402;50.004;8.246;2023-09-30T12:48:44;19.90;99.90
10702;DHT22;5402;50.004;8.246;2023-09-30T12:51:11;19.90;99.90
10702;DHT22;5402;50.004;8.246;2023-09-30T12:53:39;19.90;99.90
10702;DHT22;5402;50.004;8.246;2023-09-30T12:56:06;19.80;99.90
10702;DHT22;5402;50.004;8.246;2023-09-30T12:58:32;19.90;99.90
10702;DHT22;5402;50.004;8.246;2023-09-30T13:00:59;19.90;99.90
10702;DHT22;5402;50.004;8.246;2023-09-30T13:03:27;19.90;99.90
10702;DHT22;5402;50.004;8.246;2023-09-30T13:05:54;19.90;99.90
10702;DHT22;5402;50.004;8.246;2023-09-30T13:08:21;20.00;99.90
10702;DHT22;5402;50.004;8.246;2023-09-30T13:10:47;19.90;99.90
10702;DHT22;5402;50.004;8.246;2023-09-30T13:13:16;19.90;99.90
10702;DHT22;5402;50.004;8.246;2023-09-30T13:15:42;19.90;99.90
10702;DHT22;5402;50.004;8.246;2023-09-30T13:18:09;19.80;99.90
10702;DHT22;5402;50.004;8.246;2023-09-30T13:20:37;19.80;99.90
10702;DHT22;5402;50.004;8.246;2023-09-30T13:23:04;19.90;99.90
10702;DHT22;5402;50.004;8.246;2023-09-30T13:25:31;20.00;99.90
10702;DHT22;5402;50.004;8.246;2023-09-30T13:27:58;20.10;99.90
10702;DHT22;5402;50.004;8.246;2023-09-30T13:30:25;20.20;99.90
10702;DHT22;5402;50.004;8.246;2023-09-30T13:32:51;20.40;99.90
10702;DHT22;5402;50.004;8.246;2023-09-30T13:35:18;20.30;99.90
10702;DHT22;5402;50.004;8.246;2023-09-30T13:37:46;20.40;99.90
10702;DHT22;5402;50.004;8.246;2023-09-30T13:40:13;20.40;99.90
10702;DHT22;5402;50.004;8.246;2023-09-30T13:42:40;20.20;99.90
10702;DHT22;5402;50.004;8.246;2023-09-30T13:45:08;20.20;99.90
10702;DHT22;5402;50.004;8.246;2023-09-30T13:47:35;20.10;99.90
10702;DHT22;5402;50.004;8.246;2023-09-30T13:50:02;20.10;99.90
10702;DHT22;5402;50.004;8.246;2023-09-30T13:52:32;20.00;99.90
10702;DHT22;5402;50.004;8.246;2023-09-30T13:55:02;20.00;99.90
10702;DHT22;5402;50.004;8.246;2023-09-30T13:57:30;20.00;99.90
10702;DHT22;5402;50.004;8.246;2023-09-30T13:59:57;20.10;99.90
10702;DHT22;5402;50.004;8.246;2023-09-30T14:02:24;20.10;99.90
10702;DHT22;5402;50.004;8.246;2023-09-30T14:04:51;20.00;99.90
10702;DHT22;5402;50.004;8.246;2023-09-30T14:07:18;20.00;99.90
10702;DHT22;5402;50.004;8.246;2023-09-30T14:09:45;20.00;99.90
10702;DHT22;5402;50.004;8.246;2023-09-30T14:12:14;20.00;99.90
10702;DHT22;5402;50.004;8.246;2023-09-30T14:14:41;20.00;99.90
10702;DHT22;5402;50.004;8.246;2023-09-30T14:17:07;20.00;99.90
10702;DHT22;5402;50.004;8.246;2023-09-30T14:19:37;20.10;99.90
10702;DHT22;5402;50.004;8.246;2023-09-30T14:22:04;20.00;99.90
10702;DHT22;5402;50.004;8.246;2023-09-30T14:24:31;20.00;99.90
10702;DHT22;5402;50.004;8.246;2023-09-30T14:26:58;20.00;99.90
10702;DHT22;5402;50.004;8.246;2023-09-30T14:29:26;19.90;99.90
10702;DHT22;5402;50.004;8.246;2023-09-30T14:31:53;19.80;99.90
10702;DHT22;5402;50.004;8.246;2023-09-30T14:34:20;19.90;99.90
10702;DHT22;5402;50.004;8.246;2023-09-30T14:36:47;19.80;99.90
10702;DHT22;5402;50.004;8.246;2023-09-30T14:39:14;19.80;99.90
10702;DHT22;5402;50.004;8.246;2023-09-30T14:41:41;19.80;99.90
10702;DHT22;5402;50.004;8.246;2023-09-30T14:44:08;19.70;99.90
10702;DHT22;5402;50.004;8.246;2023-09-30T14:46:39;19.70;99.90
10702;DHT22;5402;50.004;8.246;2023-09-30T14:49:06;19.70;99.90
10702;DHT22;5402;50.004;8.246;2023-09-30T14:51:33;19.60;99.90
10702;DHT22;5402;50.004;8.246;2023-09-30T14:53:59;19.60;99.90
10702;DHT22;5402;50.004;8.246;2023-09-30T14:56:26;19.60;99.90
10702;DHT22;5402;50.004;8.246;2023-09-30T14:58:53;19.60;99.90
10702;DHT22;5402;50.004;8.246;2023-09-30T15:01:20;19.60;99.90
10702;DHT22;5402;50.004;8.246;2023-09-30T15:03:52;19.60;99.90
10702;DHT22;5402;50.004;8.246;2023-09-30T15:06:18;19.60;99.90
10702;DHT22;5402;50.004;8.246;2023-09-30T15:08:46;19.70;99.90
10702;DHT22;5402;50.004;8.246;2023-09-30T15:11:14;19.60;99.90
10702;DHT22;5402;50.004;8.246;2023-09-30T15:13:41;19.70;99.90
10702;DHT22;5402;50.004;8.246;2023-09-30T15:16:15;19.70;99.90
10702;DHT22;5402;50.004;8.246;2023-09-30T15:18:42;19.70;99.90
10702;DHT22;5402;50.004;8.246;2023-09-30T15:21:10;19.70;99.90
10702;DHT22;5402;50.004;8.246;2023-09-30T15:23:37;19.60;99.90
10702;DHT22;5402;50.004;8.246;2023-09-30T15:26:03;19.70;99.90
10702;DHT22;5402;50.004;8.246;2023-09-30T15:28:31;19.60;99.90
10702;DHT22;5402;50.004;8.246;2023-09-30T15:30:58;19.70;99.90
10702;DHT22;5402;50.004;8.246;2023-09-30T15:33:26;19.70;99.90
10702;DHT22;5402;50.004;8.246;2023-09-30T15:35:53;19.60;99.90
10702;DHT22;5402;50.004;8.246;2023-09-30T15:38:21;19.60;99.90
10702;DHT22;5402;50.004;8.246;2023-09-30T15:40:51;19.60;99.90
10702;DHT22;5402;50.004;8.246;2023-09-30T15:43:19;19.60;99.90
10702;DHT22;5402;50.004;8.246;2023-09-30T15:45:46;19.50;99.90
10702;DHT22;5402;50.004;8.246;2023-09-30T15:48:13;19.50;99.90
10702;DHT22;5402;50.004;8.246;2023-09-30T15:50:40;19.50;99.90
10702;DHT22;5402;50.004;8.246;2023-09-30T15:53:07;19.40;99.90
10702;DHT22;5402;50.004;8.246;2023-09-30T15:55:35;19.40;99.90
10702;DHT22;5402;50.004;8.246;2023-09-30T15:58:03;19.30;99.90
10702;DHT22;5402;50.004;8.246;2023-09-30T16:00:29;19.30;99.90